Time;durP1;ratioP1;P1;durP2;ratioP2;P2;SDS_P1;SDS_P2;PMS_P1;PMS_P2;Temp;Humidity;BMP_temperature;BMP_pressure;BME280_temperature;BME280_humidity;BME280_pressure;Samples;Min_cycle;Max_cycle;Signal;HPM_P1;HPM_P2
2023/12/16 00:00:59;;;;;;;9.43;3.60;;;7.80;99.90;;;;;;5032515;28;20128;-54
2023/12/16 00:03:25;;;;;;;13.93;3.97;;;7.80;99.90;;;;;;5032421;28;20497;-55
2023/12/16 00:05:53;;;;;;;10.83;3.67;;;7.80;99.90;;;;;;5032426;28;20124;-52
2023/12/16 00:08:19;;;;;;;10.20;3.47;;;7.80;99.90;;;;;;5032221;28;20040;-51
2023/12/16 00:10:44;;;;;;;17.03;4.50;;;7.80;99.90;;;;;;5032208;28;20514;-52
2023/12/16 00:13:10;;;;;;;15.40;3.40;;;7.80;99.90;;;;;;5032106;28;20100;-52
2023/12/16 00:15:36;;;;;;;13.47;4.07;;;7.80;99.90;;;;;;5032415;28;20087;-53
2023/12/16 00:18:01;;;;;;;9.70;3.70;;;7.80;99.90;;;;;;5031978;28;20033;-55
2023/12/16 00:20:27;;;;;;;10.93;4.00;;;7.70;99.90;;;;;;5032034;28;20091;-52
2023/12/16 00:22:52;;;;;;;8.50;3.37;;;7.80;99.90;;;;;;5032147;28;20091;-54
2023/12/16 00:25:18;;;;;;;10.93;3.93;;;7.80;99.90;;;;;;5032108;28;20394;-50
2023/12/16 00:27:45;;;;;;;11.17;3.23;;;7.80;99.90;;;;;;5031928;28;20467;-52
2023/12/16 00:30:11;;;;;;;10.67;3.90;;;7.80;99.90;;;;;;4997918;28;20121;-55
2023/12/16 00:32:39;;;;;;;16.10;3.70;;;7.80;99.90;;;;;;5031924;28;20533;-55
2023/12/16 00:35:05;;;;;;;11.40;2.90;;;7.80;99.90;;;;;;5031983;28;20108;-55
2023/12/16 00:37:31;;;;;;;11.67;3.30;;;7.90;99.90;;;;;;5032284;28;20029;-55
2023/12/16 00:39:56;;;;;;;10.80;3.40;;;7.90;99.90;;;;;;5031704;28;20501;-54
2023/12/16 00:42:22;;;;;;;12.03;3.57;;;7.90;99.90;;;;;;5031813;28;20033;-50
2023/12/16 00:44:48;;;;;;;10.10;3.73;;;7.90;99.90;;;;;;5031863;28;20026;-54
2023/12/16 00:47:13;;;;;;;14.20;3.80;;;7.90;99.90;;;;;;5031660;28;20034;-55
2023/12/16 00:49:39;;;;;;;15.17;4.47;;;7.80;99.90;;;;;;5031771;28;20394;-56
2023/12/16 00:52:05;;;;;;;8.40;3.50;;;7.80;99.90;;;;;;5031755;28;20028;-54
2023/12/16 00:54:30;;;;;;;9.73;3.47;;;7.80;99.90;;;;;;5031752;28;20033;-52
2023/12/16 00:56:56;;;;;;;11.77;3.87;;;7.80;99.90;;;;;;5031570;28;20029;-52
2023/12/16 00:59:23;;;;;;;16.53;4.00;;;7.70;99.90;;;;;;5031641;28;20030;-55
2023/12/16 01:01:49;;;;;;;15.13;3.77;;;7.70;99.90;;;;;;5031601;28;20040;-53
2023/12/16 01:04:14;;;;;;;15.43;4.30;;;7.70;99.90;;;;;;5031688;28;20026;-55
2023/12/16 01:06:40;;;;;;;10.63;3.63;;;7.70;99.90;;;;;;5031538;28;20037;-52
2023/12/16 01:09:05;;;;;;;12.07;4.07;;;7.70;99.90;;;;;;5031507;28;20036;-52
2023/12/16 01:11:31;;;;;;;15.40;4.17;;;7.70;99.90;;;;;;5031499;28;20034;-55
2023/12/16 01:13:56;;;;;;;12.53;3.83;;;7.70;99.90;;;;;;5013878;28;20129;-54
2023/12/16 01:16:22;;;;;;;10.57;3.93;;;7.70;99.90;;;;;;5034057;28;20030;-54
2023/12/16 01:18:48;;;;;;;10.90;3.77;;;7.70;99.90;;;;;;5035401;28;20398;-53
2023/12/16 01:21:13;;;;;;;11.53;3.83;;;7.70;99.90;;;;;;5035386;28;20083;-53
2023/12/16 01:23:39;;;;;;;15.00;4.10;;;7.60;99.90;;;;;;5035479;28;20038;-55
2023/12/16 01:26:04;;;;;;;7.73;3.20;;;7.60;99.90;;;;;;5035100;28;20037;-54
2023/12/16 01:28:30;;;;;;;8.70;3.57;;;7.60;99.90;;;;;;5035274;28;20025;-53
2023/12/16 01:30:56;;;;;;;7.83;3.00;;;7.70;99.90;;;;;;5035177;28;20033;-52
2023/12/16 01:33:22;;;;;;;11.70;3.03;;;7.70;99.90;;;;;;5035309;28;20060;-55
2023/12/16 01:35:48;;;;;;;13.23;3.27;;;7.80;99.90;;;;;;5035219;28;20071;-51
2023/12/16 01:38:14;;;;;;;13.43;3.63;;;7.80;99.90;;;;;;5035075;28;20088;-52
2023/12/16 01:40:40;;;;;;;11.03;3.63;;;7.80;99.90;;;;;;5017143;28;20533;-55
2023/12/16 01:43:07;;;;;;;9.47;2.97;;;7.80;99.90;;;;;;5035341;28;20144;-56
2023/12/16 01:45:32;;;;;;;9.53;2.97;;;7.80;99.90;;;;;;5035082;28;20080;-51
2023/12/16 01:47:59;;;;;;;11.50;2.87;;;7.80;99.90;;;;;;5034922;28;20088;-55
2023/12/16 01:50:26;;;;;;;7.40;2.73;;;7.90;99.90;;;;;;5034948;28;20079;-54
2023/12/16 01:52:53;;;;;;;13.90;3.10;;;7.90;99.90;;;;;;5034943;28;20036;-51
2023/12/16 01:55:20;;;;;;;9.67;2.80;;;7.90;99.90;;;;;;5034741;28;20041;-54
2023/12/16 01:57:46;;;;;;;10.90;3.07;;;7.90;99.90;;;;;;5034658;28;20033;-51
2023/12/16 02:00:20;;;;;;;9.80;2.30;;;7.90;99.90;;;;;;5016905;28;20030;-51
2023/12/16 02:02:48;;;;;;;10.67;2.50;;;7.90;99.90;;;;;;5017434;28;20075;-52
2023/12/16 02:05:14;;;;;;;11.57;3.43;;;7.90;99.90;;;;;;5034710;28;20033;-54
2023/12/16 02:07:39;;;;;;;8.87;2.70;;;7.90;99.90;;;;;;5034475;28;20025;-55
2023/12/16 02:10:05;;;;;;;10.93;2.70;;;7.90;99.90;;;;;;5034480;28;20060;-51
2023/12/16 02:12:33;;;;;;;6.87;2.60;;;7.80;99.90;;;;;;5034517;28;20482;-55
2023/12/16 02:15:00;;;;;;;7.57;2.50;;;7.90;99.90;;;;;;5034535;28;20079;-51
2023/12/16 02:17:25;;;;;;;10.53;2.50;;;7.90;99.90;;;;;;5034357;28;20029;-53
2023/12/16 02:19:53;;;;;;;9.50;2.53;;;8.00;99.90;;;;;;5034315;28;20397;-52
2023/12/16 02:22:19;;;;;;;6.00;2.10;;;8.10;99.90;;;;;;5034115;28;20033;-54
2023/12/16 02:24:46;;;;;;;12.27;2.57;;;8.00;99.90;;;;;;5034332;28;20120;-51
2023/12/16 02:27:12;;;;;;;10.60;2.70;;;8.10;99.90;;;;;;5032848;28;20057;-53
2023/12/16 02:29:37;;;;;;;5.23;2.30;;;8.10;99.90;;;;;;5034162;28;20490;-55
2023/12/16 02:32:03;;;;;;;8.10;2.53;;;8.20;99.90;;;;;;5034157;28;20077;-56
2023/12/16 02:34:30;;;;;;;7.67;2.80;;;8.20;99.90;;;;;;5034211;28;20367;-53
2023/12/16 02:36:55;;;;;;;6.63;2.10;;;8.10;99.90;;;;;;5033906;28;20037;-52
2023/12/16 02:39:21;;;;;;;11.87;2.30;;;8.20;99.90;;;;;;5033917;28;20029;-56
2023/12/16 02:41:47;;;;;;;8.37;2.93;;;8.20;99.90;;;;;;5033846;28;20398;-52
2023/12/16 02:44:12;;;;;;;8.80;2.70;;;8.20;99.90;;;;;;5033951;28;20490;-54
2023/12/16 02:46:38;;;;;;;4.17;1.97;;;8.10;99.90;;;;;;5033864;28;20045;-52
2023/12/16 02:49:04;;;;;;;9.10;2.33;;;8.10;99.90;;;;;;5033782;28;20035;-54
2023/12/16 02:51:29;;;;;;;11.53;2.37;;;8.20;99.90;;;;;;5033738;28;20036;-55
2023/12/16 02:53:55;;;;;;;9.47;2.20;;;8.20;99.90;;;;;;5033778;28;20033;-54
2023/12/16 02:56:21;;;;;;;9.43;2.40;;;8.20;99.90;;;;;;5033500;28;20048;-51
2023/12/16 02:58:47;;;;;;;9.10;1.97;;;8.20;99.90;;;;;;5015841;28;20034;-51
2023/12/16 03:01:13;;;;;;;9.73;2.10;;;8.20;99.90;;;;;;5033574;28;20029;-51
2023/12/16 03:03:39;;;;;;;10.27;3.13;;;8.20;99.90;;;;;;5033653;28;20040;-56
2023/12/16 03:06:06;;;;;;;12.17;2.23;;;8.10;99.90;;;;;;5033389;28;20051;-52
2023/12/16 03:08:33;;;;;;;8.57;2.80;;;8.00;99.90;;;;;;5033419;28;20091;-54
2023/12/16 03:11:00;;;;;;;9.17;2.20;;;8.00;99.90;;;;;;5033595;28;20029;-51
2023/12/16 03:13:26;;;;;;;7.40;2.23;;;8.00;99.90;;;;;;5033352;28;20038;-56
2023/12/16 03:15:51;;;;;;;11.37;2.60;;;7.90;99.90;;;;;;5033338;28;20034;-51
2023/12/16 03:18:17;;;;;;;6.97;2.33;;;7.80;99.90;;;;;;5033198;28;20025;-52
2023/12/16 03:20:42;;;;;;;8.00;2.60;;;7.80;99.90;;;;;;5033150;28;20079;-55
2023/12/16 03:23:08;;;;;;;8.50;2.60;;;7.80;99.90;;;;;;5015563;28;20080;-56
2023/12/16 03:25:34;;;;;;;8.23;2.17;;;7.80;99.90;;;;;;5033279;28;20087;-53
2023/12/16 03:28:00;;;;;;;7.60;2.23;;;7.80;99.90;;;;;;5032988;28;20037;-51
2023/12/16 03:30:25;;;;;;;8.83;2.13;;;7.80;99.90;;;;;;5032972;28;20443;-56
2023/12/16 03:32:51;;;;;;;12.83;2.13;;;7.80;99.90;;;;;;5033051;28;20030;-56
2023/12/16 03:35:17;;;;;;;6.10;1.93;;;7.80;99.90;;;;;;5032906;28;20116;-56
2023/12/16 03:37:42;;;;;;;8.13;2.20;;;7.70;99.90;;;;;;5032659;28;20030;-56
2023/12/16 03:40:08;;;;;;;8.07;2.30;;;7.70;99.90;;;;;;5032786;28;20037;-54
2023/12/16 03:42:34;;;;;;;6.03;2.03;;;7.70;99.90;;;;;;5032739;28;20030;-52
2023/12/16 03:44:59;;;;;;;7.37;1.93;;;7.70;99.90;;;;;;5032975;28;20033;-55
2023/12/16 03:47:25;;;;;;;4.77;1.63;;;7.80;99.90;;;;;;5032660;28;20057;-56
2023/12/16 03:49:51;;;;;;;8.03;2.00;;;7.70;99.90;;;;;;5032638;28;20029;-55
2023/12/16 03:52:17;;;;;;;8.67;2.13;;;7.70;99.90;;;;;;5032710;28;20021;-55
2023/12/16 03:54:42;;;;;;;6.60;1.87;;;7.70;99.90;;;;;;5032616;28;20467;-51
2023/12/16 03:57:08;;;;;;;9.00;2.30;;;7.70;99.90;;;;;;5014804;28;20068;-56
2023/12/16 03:59:33;;;;;;;8.17;2.10;;;7.60;99.90;;;;;;5032433;28;20032;-55
2023/12/16 04:01:59;;;;;;;6.57;2.10;;;7.60;99.90;;;;;;5032469;28;20057;-55
2023/12/16 04:04:25;;;;;;;12.00;2.97;;;7.50;99.90;;;;;;5032383;28;20029;-56
2023/12/16 04:06:50;;;;;;;16.93;2.83;;;7.60;99.90;;;;;;5032387;28;20055;-51
2023/12/16 04:09:16;;;;;;;9.87;2.53;;;7.60;99.90;;;;;;5032274;28;20033;-51
2023/12/16 04:11:48;;;;;;;7.03;1.77;;;7.50;99.90;;;;;;5032256;28;20118;-54
2023/12/16 04:14:14;;;;;;;7.97;2.20;;;7.50;99.90;;;;;;5032272;28;20398;-53
2023/12/16 04:16:40;;;;;;;11.97;2.90;;;7.50;99.90;;;;;;5032071;28;20035;-53
2023/12/16 04:19:07;;;;;;;9.63;2.10;;;7.50;99.90;;;;;;5032500;28;20050;-54
2023/12/16 04:21:32;;;;;;;6.93;2.30;;;7.50;99.90;;;;;;5032081;28;20112;-52
2023/12/16 04:23:59;;;;;;;7.27;2.13;;;7.50;99.90;;;;;;5032134;28;20453;-53
2023/12/16 04:26:24;;;;;;;10.93;2.93;;;7.50;99.90;;;;;;5031986;28;20236;-55
2023/12/16 04:28:50;;;;;;;10.73;2.37;;;7.60;99.90;;;;;;5032484;28;20116;-55
2023/12/16 04:31:17;;;;;;;6.20;2.30;;;7.60;99.90;;;;;;5031946;28;20069;-54
2023/12/16 04:33:43;;;;;;;12.00;2.47;;;7.50;99.90;;;;;;5031975;28;20108;-55
2023/12/16 04:36:16;;;;;;;9.83;2.00;;;7.50;99.90;;;;;;5031873;28;20033;-54
2023/12/16 04:38:42;;;;;;;5.13;1.90;;;7.50;99.90;;;;;;5031965;28;20025;-53
2023/12/16 04:41:11;;;;;;;8.20;2.23;;;7.50;99.90;;;;;;5031790;28;20140;-55
2023/12/16 04:43:37;;;;;;;;;;;7.50;99.90;;;;;;5032486;28;20029;-55
2023/12/16 04:46:03;;;;;;;8.50;2.10;;;7.60;99.90;;;;;;5031799;28;20393;-54
2023/12/16 04:48:29;;;;;;;8.07;2.30;;;7.50;99.90;;;;;;5031826;28;20376;-54
2023/12/16 04:50:54;;;;;;;7.53;2.10;;;7.50;99.90;;;;;;5031095;28;20059;-55
2023/12/16 04:53:20;;;;;;;11.70;2.40;;;7.50;99.90;;;;;;5031793;28;20029;-55
2023/12/16 04:55:45;;;;;;;9.47;2.00;;;7.50;99.90;;;;;;5031639;28;20029;-54
2023/12/16 04:58:11;;;;;;;4.53;1.90;;;7.50;99.90;;;;;;5032026;28;20030;-53
2023/12/16 05:00:37;;;;;;;7.43;2.00;;;7.60;99.90;;;;;;5031542;28;20021;-53
2023/12/16 05:03:03;;;;;;;6.47;2.73;;;7.50;99.90;;;;;;5013929;28;20473;-55
2023/12/16 05:05:29;;;;;;;7.73;2.17;;;7.40;99.90;;;;;;5031644;28;20132;-53
2023/12/16 05:07:54;;;;;;;8.63;2.13;;;7.50;99.90;;;;;;5031460;28;20138;-53
2023/12/16 05:10:20;;;;;;;12.53;3.47;;;7.50;99.90;;;;;;5031421;28;20566;-51
2023/12/16 05:12:47;;;;;;;10.07;4.07;;;7.50;99.90;;;;;;5031755;28;20041;-55
2023/12/16 05:15:12;;;;;;;7.67;2.03;;;7.50;99.90;;;;;;5031585;28;20030;-55
2023/12/16 05:17:38;;;;;;;6.30;1.90;;;7.50;99.90;;;;;;5031355;28;20051;-52
2023/12/16 05:20:04;;;;;;;6.97;2.10;;;7.40;99.90;;;;;;5031572;28;20410;-53
2023/12/16 05:22:33;;;;;;;7.10;2.30;;;7.40;99.90;;;;;;5031487;28;20121;-53
2023/12/16 05:25:03;;;;;;;9.55;1.92;;;7.50;99.90;;;;;;5031527;28;20041;-55
2023/12/16 05:27:30;;;;;;;7.60;2.20;;;7.40;99.90;;;;;;5031407;28;20042;-52
2023/12/16 05:30:02;;;;;;;12.03;2.67;;;7.40;99.90;;;;;;5031300;28;20405;-53
2023/12/16 05:32:28;;;;;;;7.50;2.00;;;7.50;99.90;;;;;;5031440;28;20025;-50
2023/12/16 05:34:54;;;;;;;8.70;2.67;;;7.40;99.90;;;;;;5031589;28;20076;-54
2023/12/16 05:37:20;;;;;;;8.87;2.30;;;7.40;99.90;;;;;;5031283;28;20022;-52
2023/12/16 05:39:47;;;;;;;9.10;2.13;;;7.30;99.90;;;;;;5031162;28;20036;-51
2023/12/16 05:42:13;;;;;;;8.60;2.13;;;7.30;99.90;;;;;;5031280;28;20025;-52
2023/12/16 05:44:38;;;;;;;7.20;1.97;;;7.40;99.90;;;;;;5031814;28;20075;-50
2023/12/16 05:47:06;;;;;;;8.40;2.27;;;7.40;99.90;;;;;;5031165;28;20064;-52
2023/12/16 05:49:31;;;;;;;8.83;2.10;;;7.30;99.90;;;;;;5031243;28;20616;-51
2023/12/16 05:51:57;;;;;;;7.03;1.80;;;7.40;99.90;;;;;;5013639;28;20112;-50
2023/12/16 05:54:25;;;;;;;9.13;2.50;;;7.40;99.90;;;;;;5031655;28;20049;-52
2023/12/16 05:56:51;;;;;;;5.97;2.10;;;7.40;99.90;;;;;;5030985;28;20034;-53
2023/12/16 05:59:17;;;;;;;6.37;2.17;;;7.60;99.90;;;;;;5031030;28;20037;-54
2023/12/16 06:01:44;;;;;;;13.40;2.30;;;7.60;99.90;;;;;;5032626;28;20029;-54
2023/12/16 06:04:09;;;;;;;6.87;1.93;;;7.70;99.90;;;;;;5034763;28;20034;-51
2023/12/16 06:06:35;;;;;;;8.67;1.73;;;7.60;99.90;;;;;;5034600;28;20116;-53
2023/12/16 06:09:00;;;;;;;13.17;1.80;;;7.60;99.90;;;;;;5034381;28;20026;-56
2023/12/16 06:11:26;;;;;;;9.27;2.10;;;7.60;99.90;;;;;;5034441;28;20120;-55
2023/12/16 06:13:52;;;;;;;9.07;2.03;;;7.50;99.90;;;;;;5034621;28;20029;-52
2023/12/16 06:16:18;;;;;;;5.67;1.60;;;7.50;99.90;;;;;;5016600;28;20125;-55
2023/12/16 06:18:45;;;;;;;8.97;1.70;;;7.50;99.90;;;;;;5034350;28;20115;-53
2023/12/16 06:21:11;;;;;;;5.80;1.67;;;7.60;99.90;;;;;;5034413;28;20056;-51
2023/12/16 06:23:36;;;;;;;7.00;1.93;;;7.60;99.90;;;;;;5034269;28;20029;-53
2023/12/16 06:26:02;;;;;;;3.87;1.33;;;7.60;99.90;;;;;;5034269;28;20030;-52
2023/12/16 06:28:28;;;;;;;9.23;2.33;;;7.70;99.90;;;;;;5034016;28;20029;-55
2023/12/16 06:30:53;;;;;;;12.13;1.80;;;7.70;99.90;;;;;;5034225;28;20053;-55
2023/12/16 06:33:19;;;;;;;7.00;1.80;;;7.60;99.90;;;;;;5034175;28;20438;-55
2023/12/16 06:35:44;;;;;;;8.10;2.27;;;7.70;99.90;;;;;;5034402;28;20072;-53
2023/12/16 06:38:10;;;;;;;10.47;2.20;;;7.60;99.90;;;;;;5033972;28;20017;-55
2023/12/16 06:40:36;;;;;;;7.97;2.30;;;7.60;99.90;;;;;;5033672;28;20033;-54
2023/12/16 06:43:02;;;;;;;5.70;1.90;;;7.60;99.90;;;;;;5033970;28;20032;-55
2023/12/16 06:45:28;;;;;;;7.93;2.00;;;7.60;99.90;;;;;;5033972;28;20502;-56
2023/12/16 06:47:54;;;;;;;5.87;1.73;;;7.60;99.90;;;;;;5033747;28;20061;-53
2023/12/16 06:50:19;;;;;;;8.20;2.37;;;7.70;99.90;;;;;;5033704;28;20060;-53
2023/12/16 06:52:45;;;;;;;8.97;2.20;;;7.70;99.90;;;;;;5033808;28;20490;-56
2023/12/16 06:55:11;;;;;;;10.43;2.87;;;7.70;99.90;;;;;;5033688;28;20040;-56
2023/12/16 06:57:37;;;;;;;9.13;2.40;;;7.60;99.90;;;;;;5033781;28;20025;-55
2023/12/16 07:00:02;;;;;;;7.07;1.70;;;7.60;99.90;;;;;;5033690;28;20024;-55
2023/12/16 07:02:28;;;;;;;6.73;2.20;;;7.50;99.90;;;;;;5033596;28;20417;-55
2023/12/16 07:04:53;;;;;;;5.73;1.50;;;7.60;99.90;;;;;;5033808;28;20257;-54
2023/12/16 07:07:19;;;;;;;10.13;2.30;;;7.60;99.90;;;;;;5033496;28;20025;-55
2023/12/16 07:09:45;;;;;;;8.47;2.70;;;7.60;99.90;;;;;;5033413;28;20040;-56
2023/12/16 07:12:10;;;;;;;9.77;2.10;;;7.60;99.90;;;;;;5033240;28;20471;-56
2023/12/16 07:14:37;;;;;;;9.23;2.30;;;7.60;99.90;;;;;;5032860;28;20054;-55
2023/12/16 07:17:03;;;;;;;10.70;2.30;;;7.60;99.90;;;;;;5033218;28;20041;-56
2023/12/16 07:19:31;;;;;;;9.30;2.20;;;7.60;99.90;;;;;;5033232;28;20540;-56
2023/12/16 07:21:57;;;;;;;12.33;3.77;;;7.50;99.90;;;;;;5033225;28;20061;-54
2023/12/16 07:24:23;;;;;;;9.90;2.90;;;7.50;99.90;;;;;;5033195;28;20053;-56
2023/12/16 07:26:48;;;;;;;11.53;2.43;;;7.50;99.90;;;;;;5033106;28;20063;-56
2023/12/16 07:29:14;;;;;;;7.90;2.33;;;7.50;99.90;;;;;;5033105;28;20025;-53
2023/12/16 07:31:40;;;;;;;5.80;2.00;;;7.40;99.90;;;;;;5033031;28;20033;-53
2023/12/16 07:34:06;;;;;;;11.40;2.47;;;7.50;99.90;;;;;;5033118;28;20056;-54
2023/12/16 07:36:32;;;;;;;12.73;2.63;;;7.60;99.90;;;;;;5032809;28;20029;-54
2023/12/16 07:38:58;;;;;;;8.93;2.00;;;7.50;99.90;;;;;;5032808;28;20028;-55
2023/12/16 07:41:24;;;;;;;5.10;1.70;;;7.50;99.90;;;;;;5032748;28;20498;-56
2023/12/16 07:43:50;;;;;;;10.07;2.53;;;7.30;99.90;;;;;;5032819;28;20382;-54
2023/12/16 07:46:16;;;;;;;9.70;2.13;;;7.40;99.90;;;;;;5032650;28;20044;-55
2023/12/16 07:48:42;;;;;;;7.87;2.30;;;7.30;99.90;;;;;;5032689;28;20485;-55
2023/12/16 07:51:19;;;;;;;5.80;1.97;;;7.20;99.90;;;;;;5032694;28;20083;-55
2023/12/16 07:53:48;;;;;;;6.73;2.80;;;7.10;99.90;;;;;;5032600;28;20026;-56
2023/12/16 07:56:26;;;;;;;6.43;2.05;;;7.10;99.90;;;;;;5032525;28;20398;-52
2023/12/16 07:58:52;;;;;;;5.60;2.07;;;7.10;99.90;;;;;;5032460;28;20029;-56
2023/12/16 08:01:18;;;;;;;5.37;1.70;;;7.10;99.90;;;;;;5032520;28;20040;-55
2023/12/16 08:03:46;;;;;;;8.97;2.33;;;7.10;99.90;;;;;;5032514;28;20044;-55
2023/12/16 08:06:14;;;;;;;8.53;2.27;;;7.20;99.90;;;;;;5014510;28;20037;-53
2023/12/16 08:08:41;;;;;;;11.27;2.03;;;7.20;99.90;;;;;;5032343;28;20401;-56
2023/12/16 08:11:08;;;;;;;8.20;2.00;;;7.10;99.90;;;;;;5032392;28;20048;-55
2023/12/16 08:13:34;;;;;;;12.73;2.10;;;7.10;99.90;;;;;;5032353;28;20030;-55
2023/12/16 08:16:00;;;;;;;12.57;2.70;;;7.10;99.90;;;;;;5032254;28;20042;-50
2023/12/16 08:18:27;;;;;;;11.43;2.50;;;7.20;99.90;;;;;;5031992;28;20117;-53
2023/12/16 08:20:53;;;;;;;12.00;3.27;;;7.20;99.90;;;;;;5032129;28;20562;-54
2023/12/16 08:23:19;;;;;;;7.50;2.50;;;7.20;99.90;;;;;;5032200;28;20025;-54
2023/12/16 08:25:45;;;;;;;6.70;2.33;;;7.20;99.90;;;;;;5032116;28;20049;-55
2023/12/16 08:28:11;;;;;;;8.13;1.77;;;7.20;99.90;;;;;;5031947;28;20029;-54
2023/12/16 08:30:37;;;;;;;9.93;2.37;;;7.30;99.90;;;;;;5032016;28;20375;-56
2023/12/16 08:33:03;;;;;;;7.17;1.93;;;7.30;99.90;;;;;;5031916;28;20036;-55
2023/12/16 08:35:29;;;;;;;10.40;2.57;;;7.30;99.90;;;;;;5031939;28;20091;-55
2023/12/16 08:37:56;;;;;;;9.10;2.60;;;7.30;99.90;;;;;;5014073;28;20025;-55
2023/12/16 08:40:22;;;;;;;11.40;2.20;;;7.50;99.90;;;;;;5031727;28;20421;-55
2023/12/16 08:42:48;;;;;;;8.77;2.30;;;7.50;99.90;;;;;;5031928;28;20033;-56
2023/12/16 08:45:14;;;;;;;7.93;2.10;;;7.70;99.90;;;;;;5031982;28;20036;-55
2023/12/16 08:47:40;;;;;;;9.27;2.10;;;7.90;99.90;;;;;;5031729;28;20037;-55
2023/12/16 08:50:07;;;;;;;9.70;2.37;;;8.00;99.90;;;;;;5031812;28;20037;-55
2023/12/16 08:52:33;;;;;;;10.17;2.13;;;8.10;99.90;;;;;;5031695;28;20041;-55
2023/12/16 08:54:58;;;;;;;9.43;2.60;;;8.30;99.90;;;;;;5031684;28;20137;-52
2023/12/16 08:57:24;;;;;;;8.47;2.50;;;8.50;99.90;;;;;;5031535;28;20032;-54
2023/12/16 08:59:50;;;;;;;6.70;2.20;;;8.50;99.90;;;;;;5031560;28;20489;-54
2023/12/16 09:02:16;;;;;;;6.37;2.30;;;8.70;99.90;;;;;;5031685;28;20036;-54
2023/12/16 09:04:41;;;;;;;5.67;1.67;;;8.70;99.90;;;;;;5031780;28;20390;-54
2023/12/16 09:07:07;;;;;;;8.57;2.17;;;8.80;99.90;;;;;;5031550;28;20109;-54
2023/12/16 09:09:33;;;;;;;8.67;1.97;;;8.70;99.90;;;;;;5031580;28;20037;-55
2023/12/16 09:11:58;;;;;;;7.63;1.97;;;8.70;99.90;;;;;;5031626;28;20064;-55
2023/12/16 09:14:25;;;;;;;5.17;1.40;;;8.70;99.90;;;;;;5031724;28;20076;-55
2023/12/16 09:16:50;;;;;;;5.23;2.13;;;8.60;99.90;;;;;;5031368;28;20371;-55
2023/12/16 09:19:16;;;;;;;11.57;1.73;;;8.50;99.90;;;;;;5031531;28;20041;-55
2023/12/16 09:21:42;;;;;;;10.10;2.07;;;8.50;99.90;;;;;;5031444;28;20029;-53
2023/12/16 09:24:08;;;;;;;7.27;1.63;;;8.40;99.90;;;;;;5031563;28;20478;-55
2023/12/16 09:26:33;;;;;;;6.97;2.13;;;8.40;99.90;;;;;;5031457;28;20060;-54
2023/12/16 09:29:00;;;;;;;7.87;2.07;;;8.40;99.90;;;;;;5031507;28;20044;-55
2023/12/16 09:31:26;;;;;;;7.07;1.67;;;8.40;99.90;;;;;;5031422;28;20076;-54
2023/12/16 09:33:51;;;;;;;9.33;1.70;;;8.30;99.90;;;;;;5031417;28;20524;-53
2023/12/16 09:36:17;;;;;;;11.30;2.60;;;8.40;99.90;;;;;;5032047;28;20371;-55
2023/12/16 09:38:43;;;;;;;8.17;2.30;;;8.50;99.90;;;;;;5035100;28;20021;-53
2023/12/16 09:41:30;;;;;;;8.10;2.23;;;8.50;99.90;;;;;;5035041;28;20044;-51
2023/12/16 09:44:00;;;;;;;12.27;1.60;;;8.50;99.90;;;;;;5035180;28;20393;-54
2023/12/16 09:46:33;;;;;;;8.20;2.27;;;8.70;99.90;;;;;;5035035;28;20040;-55
2023/12/16 09:49:02;;;;;;;4.37;1.33;;;8.90;99.90;;;;;;5034907;28;20117;-54
2023/12/16 09:51:28;;;;;;;7.50;1.70;;;9.00;99.90;;;;;;5034965;28;20037;-51
2023/12/16 09:53:55;;;;;;;8.93;2.50;;;9.00;99.90;;;;;;5034952;28;20052;-56
2023/12/16 09:56:21;;;;;;;8.47;1.60;;;9.00;99.90;;;;;;5034834;28;20113;-51
2023/12/16 09:58:48;;;;;;;7.30;1.67;;;9.10;99.90;;;;;;5034741;28;20036;-55
2023/12/16 10:01:16;;;;;;;4.73;1.33;;;9.30;99.90;;;;;;5034803;28;20076;-51
2023/12/16 10:03:46;;;;;;;10.33;1.90;;;9.30;99.90;;;;;;5034901;28;20030;-53
2023/12/16 10:06:11;;;;;;;9.67;1.97;;;9.20;99.90;;;;;;5034659;28;20379;-51
2023/12/16 10:08:38;;;;;;;12.50;1.60;;;9.20;99.90;;;;;;5017008;28;20048;-55
2023/12/16 10:11:05;;;;;;;9.53;2.00;;;9.20;99.90;;;;;;5034604;28;20116;-54
2023/12/16 10:13:56;;;;;;;7.10;1.83;;;9.10;99.90;;;;;;5016902;28;20114;-55
2023/12/16 10:16:23;;;;;;;54.77;17.03;;;9.10;99.90;;;;;;5034507;28;20033;-55
2023/12/16 10:18:51;;;;;;;9.07;3.87;;;9.00;99.90;;;;;;5034425;28;20064;-51
2023/12/16 10:21:30;;;;;;;10.83;2.50;;;9.10;99.90;;;;;;5034397;28;20030;-55
2023/12/16 10:23:58;;;;;;;8.50;1.90;;;9.00;99.90;;;;;;5034570;28;20029;-56
2023/12/16 10:26:24;;;;;;;5.73;1.60;;;9.00;99.90;;;;;;5034540;28;20034;-56
2023/12/16 10:28:50;;;;;;;9.30;1.23;;;9.10;99.90;;;;;;5034205;28;20091;-53
2023/12/16 10:31:18;;;;;;;8.93;1.47;;;9.10;99.90;;;;;;5034319;28;20390;-52
2023/12/16 10:33:45;;;;;;;9.30;2.00;;;9.10;99.90;;;;;;5034291;28;20033;-56
2023/12/16 10:36:11;;;;;;;10.27;1.70;;;9.10;99.90;;;;;;5033966;28;20474;-56
2023/12/16 10:38:36;;;;;;;8.47;1.60;;;9.10;99.90;;;;;;5034071;28;20037;-52
2023/12/16 10:41:02;;;;;;;11.00;1.90;;;9.20;99.90;;;;;;5033955;28;20044;-56
2023/12/16 10:43:29;;;;;;;8.13;1.50;;;9.40;99.90;;;;;;5034060;28;20037;-54
2023/12/16 10:45:55;;;;;;;6.30;1.57;;;9.50;99.90;;;;;;5034121;28;20029;-53
2023/12/16 10:48:21;;;;;;;7.63;2.03;;;9.50;99.90;;;;;;5032670;28;20034;-53
2023/12/16 10:50:48;;;;;;;6.70;1.60;;;9.50;99.90;;;;;;5034331;28;20033;-54
2023/12/16 10:53:44;;;;;;;10.53;2.03;;;9.50;99.90;;;;;;5033975;28;20039;-53
2023/12/16 10:56:24;;;;;;;9.57;2.10;;;9.50;99.90;;;;;;5012426;28;20049;-53
2023/12/16 10:59:05;;;;;;;12.20;2.17;;;9.50;99.90;;;;;;5033778;28;20100;-54
2023/12/16 11:01:41;;;;;;;8.10;1.90;;;9.50;99.90;;;;;;5033587;28;20076;-54
2023/12/16 11:04:12;;;;;;;7.97;1.87;;;9.40;99.90;;;;;;5033627;28;20041;-53
2023/12/16 11:07:05;;;;;;;8.23;2.43;;;9.40;99.90;;;;;;5033500;28;20029;-54
2023/12/16 11:09:31;;;;;;;7.60;1.70;;;9.40;99.90;;;;;;5033308;28;20069;-54
2023/12/16 11:12:00;;;;;;;11.83;1.80;;;9.40;99.90;;;;;;5033434;28;20486;-55
2023/12/16 11:14:27;;;;;;;7.38;1.67;;;9.40;99.90;;;;;;5033546;28;20056;-55
2023/12/16 11:17:08;;;;;;;9.43;1.83;;;9.40;99.90;;;;;;5033179;28;20064;-54
2023/12/16 11:19:41;;;;;;;8.17;1.87;;;9.40;99.90;;;;;;5033383;28;20037;-55
2023/12/16 11:22:10;;;;;;;8.33;1.70;;;9.40;99.90;;;;;;5033253;28;20033;-54
2023/12/16 11:24:42;;;;;;;8.77;1.70;;;9.40;99.90;;;;;;5033377;28;20430;-54
2023/12/16 11:27:09;;;;;;;5.57;1.50;;;9.40;99.90;;;;;;5033042;28;20424;-51
2023/12/16 11:29:35;;;;;;;8.83;2.00;;;9.30;99.90;;;;;;5033116;28;20033;-53
2023/12/16 11:32:01;;;;;;;6.27;1.87;;;9.30;99.90;;;;;;5015212;28;20040;-54
2023/12/16 11:34:48;;;;;;;7.80;1.43;;;9.40;99.90;;;;;;5033191;28;20309;-53
2023/12/16 11:37:14;;;;;;;5.90;1.40;;;9.40;99.90;;;;;;5033082;28;20033;-54
2023/12/16 11:39:42;;;;;;;9.90;1.90;;;9.30;99.90;;;;;;5032781;28;20371;-54
2023/12/16 11:42:12;;;;;;;9.07;2.07;;;9.30;99.90;;;;;;5033306;28;20476;-54
2023/12/16 11:44:54;;;;;;;7.80;2.00;;;9.30;99.90;;;;;;5033000;28;20040;-54
2023/12/16 11:47:24;;;;;;;11.00;1.47;;;9.40;99.90;;;;;;5032695;28;20038;-52
2023/12/16 11:49:54;;;;;;;9.07;2.13;;;9.50;99.90;;;;;;5032605;28;20068;-53
2023/12/16 11:52:21;;;;;;;;;;;9.40;99.90;;;;;;5033301;28;20433;-53
2023/12/16 11:54:51;;;;;;;7.07;1.70;;;9.50;99.90;;;;;;5032707;28;19909;-53
2023/12/16 11:57:26;;;;;;;9.47;1.67;;;9.60;99.90;;;;;;5032475;28;20097;-54
2023/12/16 11:59:53;;;;;;;11.17;2.10;;;9.60;99.90;;;;;;5032349;28;20108;-54
2023/12/16 12:02:19;;;;;;;8.20;1.60;;;9.60;99.90;;;;;;5032720;28;20069;-52
2023/12/16 12:04:46;;;;;;;9.67;2.13;;;9.70;99.90;;;;;;5032499;28;20467;-53
2023/12/16 12:07:13;;;;;;;9.07;1.57;;;9.80;99.90;;;;;;5032289;28;20115;-55
2023/12/16 12:09:41;;;;;;;11.17;2.90;;;9.80;99.90;;;;;;5014681;28;20062;-53
2023/12/16 12:12:07;;;;;;;10.23;1.97;;;9.80;99.90;;;;;;5032233;28;20033;-55
2023/12/16 12:14:32;;;;;;;13.67;1.90;;;9.80;99.90;;;;;;5032345;28;20135;-52
2023/12/16 12:16:59;;;;;;;9.80;1.67;;;9.90;99.90;;;;;;5032072;28;20041;-55
2023/12/16 12:19:24;;;;;;;8.47;1.70;;;9.90;99.90;;;;;;5032179;28;20026;-54
2023/12/16 12:21:51;;;;;;;8.53;1.83;;;10.00;99.90;;;;;;5032208;28;20394;-52
2023/12/16 12:24:16;;;;;;;9.00;1.43;;;10.00;99.90;;;;;;5032166;28;20056;-55
2023/12/16 12:26:42;;;;;;;7.27;1.60;;;10.00;99.90;;;;;;5032073;28;20025;-54
2023/12/16 12:29:08;;;;;;;11.70;1.63;;;10.00;99.90;;;;;;5032126;28;20040;-55
2023/12/16 12:31:45;;;;;;;6.13;1.63;;;10.00;99.90;;;;;;5032047;28;20433;-55
2023/12/16 12:34:18;;;;;;;8.63;2.40;;;9.90;99.90;;;;;;5032249;28;20029;-55
2023/12/16 12:36:45;;;;;;;8.83;2.37;;;9.90;99.90;;;;;;5032293;28;20124;-55
2023/12/16 12:39:16;;;;;;;7.73;2.20;;;10.00;99.90;;;;;;5031872;28;20513;-54
2023/12/16 12:41:41;;;;;;;9.90;1.83;;;10.00;99.90;;;;;;5031890;28;20033;-54
2023/12/16 12:44:12;;;;;;;8.53;2.00;;;10.00;99.90;;;;;;5031984;28;20462;-54
2023/12/16 12:46:48;;;;;;;7.20;2.07;;;10.10;99.90;;;;;;5032050;28;20033;-55
2023/12/16 12:49:13;;;;;;;10.77;2.23;;;10.00;99.90;;;;;;5031832;28;20033;-55
2023/12/16 12:51:52;;;;;;;9.70;2.30;;;10.00;99.90;;;;;;5031778;28;20091;-52